createdAt,value
2019-03-09T00:00:13.586Z,18.12
2019-03-09T00:01:15.573Z,18.12
2019-03-09T00:02:12.729Z,18.12
2019-03-09T00:03:09.436Z,18.12
2019-03-09T00:04:06.132Z,18.06
2019-03-09T00:05:02.821Z,18.06
2019-03-09T00:05:59.543Z,18.12
2019-03-09T00:06:56.231Z,18.12
2019-03-09T00:07:52.929Z,18.06
2019-03-09T00:08:49.637Z,18.06
2019-03-09T00:09:46.341Z,18.12
2019-03-09T00:10:43.053Z,18.06
2019-03-09T00:11:39.765Z,18.06
2019-03-09T00:12:36.501Z,18.06
2019-03-09T00:13:33.200Z,18.06
2019-03-09T00:14:29.902Z,18.06
2019-03-09T00:15:26.596Z,18.06
2019-03-09T00:16:23.296Z,18.06
2019-03-09T00:17:20.020Z,18.06
2019-03-09T00:18:16.732Z,18.06
2019-03-09T00:19:13.437Z,18.06
2019-03-09T00:20:10.130Z,18.06
2019-03-09T00:21:06.841Z,18.06
2019-03-09T00:22:03.540Z,18.06
2019-03-09T00:23:11.404Z,18.06
2019-03-09T00:24:32.209Z,18.06
2019-03-09T00:25:33.137Z,18.06
2019-03-09T00:26:33.957Z,18.06
2019-03-09T00:27:44.341Z,18.06
2019-03-09T00:28:55.628Z,18.06
2019-03-09T00:30:01.223Z,18.06
2019-03-09T00:31:05.700Z,18.06
2019-03-09T00:32:05.343Z,18.06
2019-03-09T00:33:02.076Z,18.06
2019-03-09T00:34:01.558Z,18.06
2019-03-09T00:34:58.266Z,18.06
2019-03-09T00:35:54.960Z,18.06
2019-03-09T00:36:51.661Z,18.06
2019-03-09T00:37:48.369Z,18.06
2019-03-09T00:38:45.072Z,18.06
2019-03-09T00:39:41.776Z,18.06
2019-03-09T00:40:38.493Z,18.06
2019-03-09T00:41:35.204Z,18.06
2019-03-09T00:42:31.889Z,18.00
2019-03-09T00:43:28.618Z,18.06
2019-03-09T00:44:25.342Z,18.06
2019-03-09T00:45:22.022Z,18.00
2019-03-09T00:46:18.733Z,18.00
2019-03-09T00:47:15.433Z,18.00
2019-03-09T00:48:12.158Z,18.00
2019-03-09T00:49:08.864Z,18.00
2019-03-09T00:50:05.571Z,18.00
2019-03-09T00:51:02.269Z,18.00
2019-03-09T00:51:58.973Z,18.00
2019-03-09T00:52:55.686Z,18.00
2019-03-09T00:53:52.420Z,18.00
2019-03-09T00:54:49.114Z,18.00
2019-03-09T00:55:45.826Z,18.00
2019-03-09T00:56:42.525Z,18.00
2019-03-09T00:57:39.233Z,18.00
2019-03-09T00:58:35.977Z,18.00
2019-03-09T00:59:33.896Z,18.00
2019-03-09T01:00:30.601Z,18.00
2019-03-09T01:01:27.296Z,18.00
2019-03-09T01:02:24.000Z,18.00
2019-03-09T01:03:20.709Z,18.00
2019-03-09T01:04:17.436Z,18.00
2019-03-09T01:05:14.138Z,18.00
2019-03-09T01:06:10.834Z,18.00
2019-03-09T01:07:07.524Z,18.00
2019-03-09T01:08:04.221Z,18.00
2019-03-09T01:09:00.916Z,18.00
2019-03-09T01:09:57.645Z,18.00
2019-03-09T01:10:54.353Z,18.00
2019-03-09T01:11:51.052Z,18.00
2019-03-09T01:12:47.768Z,18.00
2019-03-09T01:13:44.452Z,18.00
2019-03-09T01:14:41.084Z,18.00
2019-03-09T01:15:37.789Z,18.00
2019-03-09T01:16:34.491Z,17.94
2019-03-09T01:17:31.192Z,18.00
2019-03-09T01:18:27.909Z,17.94
2019-03-09T01:19:24.617Z,17.94
2019-03-09T01:20:21.329Z,17.94
2019-03-09T01:21:18.030Z,17.94
2019-03-09T01:22:14.728Z,17.94
2019-03-09T01:23:11.433Z,17.94
2019-03-09T01:24:08.145Z,17.94
2019-03-09T01:25:04.873Z,17.94
2019-03-09T01:26:01.587Z,17.94
2019-03-09T01:26:58.293Z,17.94
2019-03-09T01:27:54.993Z,17.94
2019-03-09T01:28:51.697Z,17.94
2019-03-09T01:29:48.397Z,17.94
2019-03-09T01:30:45.125Z,17.94
2019-03-09T01:31:41.832Z,17.94
2019-03-09T01:32:38.533Z,17.94
2019-03-09T01:33:35.235Z,17.94
2019-03-09T01:34:31.933Z,17.94
2019-03-09T01:35:28.660Z,17.94
2019-03-09T01:36:25.366Z,17.94
2019-03-09T01:37:22.075Z,17.94
2019-03-09T01:38:18.780Z,17.94
2019-03-09T01:39:15.482Z,17.94
2019-03-09T01:40:12.177Z,17.87
2019-03-09T01:41:08.877Z,17.94
2019-03-09T01:42:05.590Z,17.94
2019-03-09T01:43:02.293Z,17.87
2019-03-09T01:43:58.997Z,17.87
2019-03-09T01:44:55.697Z,17.87
2019-03-09T01:45:52.417Z,17.87
2019-03-09T01:46:49.121Z,17.87
2019-03-09T01:47:45.816Z,17.87
2019-03-09T01:48:42.516Z,17.87
2019-03-09T01:49:39.237Z,17.87
2019-03-09T01:50:35.940Z,17.87
2019-03-09T01:51:32.666Z,17.87
2019-03-09T01:52:29.364Z,17.87
2019-03-09T01:53:26.066Z,17.87
2019-03-09T01:54:22.759Z,17.87
2019-03-09T01:55:19.461Z,17.87
2019-03-09T01:56:16.166Z,17.87
2019-03-09T01:57:12.874Z,17.87
2019-03-09T01:58:09.572Z,17.87
2019-03-09T01:59:06.289Z,17.87
2019-03-09T02:00:02.997Z,17.87
2019-03-09T02:00:59.701Z,17.87
2019-03-09T02:01:56.429Z,17.87
2019-03-09T02:02:53.135Z,17.87
2019-03-09T02:03:49.838Z,17.87
2019-03-09T02:04:46.537Z,17.87
2019-03-09T02:05:43.241Z,17.87
2019-03-09T02:06:39.944Z,17.87
2019-03-09T02:07:36.669Z,17.87
2019-03-09T02:08:33.374Z,17.87
2019-03-09T02:09:30.076Z,17.87
2019-03-09T02:10:26.780Z,17.87
2019-03-09T02:11:23.489Z,17.87
2019-03-09T02:12:20.198Z,17.87
2019-03-09T02:13:16.920Z,17.81
2019-03-09T02:14:13.624Z,17.81
2019-03-09T02:15:10.339Z,17.81
2019-03-09T02:16:07.040Z,17.81
2019-03-09T02:17:03.725Z,17.81
2019-03-09T02:18:00.465Z,17.81
2019-03-09T02:18:57.162Z,17.81
2019-03-09T02:19:53.918Z,17.81
2019-03-09T02:20:50.572Z,17.81
2019-03-09T02:21:47.276Z,17.81
2019-03-09T02:22:43.972Z,17.81
2019-03-09T02:23:40.673Z,17.81
2019-03-09T02:24:37.369Z,17.81
2019-03-09T02:25:34.068Z,17.81
2019-03-09T02:26:30.781Z,17.81
2019-03-09T02:27:27.397Z,17.81
2019-03-09T02:28:24.149Z,17.81
2019-03-09T02:29:20.823Z,17.81
2019-03-09T02:30:17.539Z,17.81
2019-03-09T02:31:14.301Z,17.81
2019-03-09T02:32:10.927Z,17.81
2019-03-09T02:33:07.622Z,17.81
2019-03-09T02:34:04.356Z,17.81
2019-03-09T02:35:01.052Z,17.81
2019-03-09T02:35:57.753Z,17.81
2019-03-09T02:36:54.445Z,17.81
2019-03-09T02:37:51.141Z,17.81
2019-03-09T02:39:07.337Z,17.81
2019-03-09T02:40:12.442Z,17.81
2019-03-09T02:41:09.142Z,17.81
2019-03-09T02:42:05.847Z,17.81
2019-03-09T02:43:02.547Z,17.75
2019-03-09T02:43:59.247Z,17.75
2019-03-09T02:44:55.981Z,17.81
2019-03-09T02:45:52.686Z,17.75
2019-03-09T02:46:49.385Z,17.75
2019-03-09T02:47:46.100Z,17.75
2019-03-09T02:48:42.809Z,17.75
2019-03-09T02:49:39.505Z,17.75
2019-03-09T02:50:38.051Z,17.75
2019-03-09T02:51:34.754Z,17.75
2019-03-09T02:52:31.452Z,17.75
2019-03-09T02:53:28.229Z,17.75
2019-03-09T02:54:24.936Z,17.75
2019-03-09T02:55:21.667Z,17.75
2019-03-09T02:56:18.368Z,17.75
2019-03-09T02:57:15.072Z,17.75
2019-03-09T02:58:11.771Z,17.75
2019-03-09T02:59:08.499Z,17.75
2019-03-09T03:00:05.201Z,17.75
2019-03-09T03:01:33.775Z,17.75
2019-03-09T03:02:34.692Z,17.75
2019-03-09T03:03:31.392Z,17.75
2019-03-09T03:04:28.099Z,17.75
2019-03-09T03:05:24.797Z,17.75
2019-03-09T03:06:21.497Z,17.75
2019-03-09T03:07:18.237Z,17.75
2019-03-09T03:08:14.928Z,17.75
2019-03-09T03:09:11.630Z,17.75
2019-03-09T03:10:08.320Z,17.75
2019-03-09T03:11:05.035Z,17.75
2019-03-09T03:12:01.722Z,17.75
2019-03-09T03:12:58.449Z,17.75
2019-03-09T03:13:55.166Z,17.75
2019-03-09T03:14:51.856Z,17.69
2019-03-09T03:15:48.557Z,17.69
2019-03-09T03:16:45.250Z,17.69
2019-03-09T03:17:41.970Z,17.69
2019-03-09T03:18:38.673Z,17.69
2019-03-09T03:19:35.365Z,17.69
2019-03-09T03:20:32.077Z,17.69
2019-03-09T03:21:28.770Z,17.69
2019-03-09T03:22:25.468Z,17.69
2019-03-09T03:23:22.197Z,17.69
2019-03-09T03:24:18.897Z,17.69
2019-03-09T03:25:15.612Z,17.69
2019-03-09T03:26:12.325Z,17.69
2019-03-09T03:27:09.020Z,17.69
2019-03-09T03:28:05.743Z,17.69
2019-03-09T03:29:02.454Z,17.69
2019-03-09T03:29:59.153Z,17.69
2019-03-09T03:30:55.867Z,17.69
2019-03-09T03:31:52.557Z,17.69
2019-03-09T03:32:49.474Z,17.69
2019-03-09T03:33:46.154Z,17.69
2019-03-09T03:34:42.870Z,17.69
2019-03-09T03:35:39.562Z,17.69
2019-03-09T03:36:36.276Z,17.69
2019-03-09T03:37:32.978Z,17.69
2019-03-09T03:38:29.709Z,17.69
2019-03-09T03:39:26.408Z,17.69
2019-03-09T03:40:23.123Z,17.69
2019-03-09T03:41:19.814Z,17.69
2019-03-09T03:42:16.522Z,17.69
2019-03-09T03:43:15.958Z,17.69
2019-03-09T03:44:11.751Z,17.69
2019-03-09T03:45:08.455Z,17.69
2019-03-09T03:46:05.142Z,17.69
2019-03-09T03:47:01.851Z,17.69
2019-03-09T03:47:58.549Z,17.69
2019-03-09T03:48:55.245Z,17.69
2019-03-09T03:49:51.982Z,17.69
2019-03-09T03:50:48.685Z,17.69
2019-03-09T03:51:45.381Z,17.69
2019-03-09T03:52:42.093Z,17.62
2019-03-09T03:53:38.798Z,17.69
2019-03-09T03:54:35.513Z,17.62
2019-03-09T03:55:32.217Z,17.69
2019-03-09T03:56:28.957Z,17.62
2019-03-09T03:57:25.621Z,17.69
2019-03-09T03:58:22.334Z,17.62
2019-03-09T03:59:19.059Z,17.62
2019-03-09T04:00:15.762Z,17.62
2019-03-09T04:01:12.466Z,17.62
2019-03-09T04:02:09.158Z,17.62
2019-03-09T04:03:05.854Z,17.62
2019-03-09T04:04:02.552Z,17.62
2019-03-09T04:04:59.290Z,17.62
2019-03-09T04:05:55.989Z,17.62
2019-03-09T04:06:52.693Z,17.62
2019-03-09T04:07:49.397Z,17.62
2019-03-09T04:08:46.098Z,17.62
2019-03-09T04:09:42.806Z,17.62
2019-03-09T04:10:39.524Z,17.62
2019-03-09T04:11:36.233Z,17.62
2019-03-09T04:12:32.941Z,17.62
2019-03-09T04:13:29.638Z,17.62
2019-03-09T04:14:26.346Z,17.62
2019-03-09T04:15:23.072Z,17.62
2019-03-09T04:16:19.777Z,17.62
2019-03-09T04:17:16.477Z,17.62
2019-03-09T04:18:13.174Z,17.62
2019-03-09T04:19:09.886Z,17.62
2019-03-09T04:20:06.586Z,17.62
2019-03-09T04:21:03.316Z,17.62
2019-03-09T04:22:00.017Z,17.62
2019-03-09T04:22:56.729Z,17.62
2019-03-09T04:23:53.425Z,17.62
2019-03-09T04:24:50.125Z,17.62
2019-03-09T04:25:46.849Z,17.62
2019-03-09T04:26:43.550Z,17.62
2019-03-09T04:27:40.271Z,17.62
2019-03-09T04:28:36.962Z,17.62
2019-03-09T04:29:33.674Z,17.62
2019-03-09T04:30:30.377Z,17.62
2019-03-09T04:31:27.086Z,17.62
2019-03-09T04:32:23.781Z,17.62
2019-03-09T04:33:20.502Z,17.62
2019-03-09T04:34:17.181Z,17.62
2019-03-09T04:35:13.876Z,17.56
2019-03-09T04:36:10.609Z,17.56
2019-03-09T04:37:07.317Z,17.62
2019-03-09T04:38:04.020Z,17.62
2019-03-09T04:39:00.721Z,17.62
2019-03-09T04:39:57.417Z,17.62
2019-03-09T04:40:54.157Z,17.62
2019-03-09T04:41:50.861Z,17.62
2019-03-09T04:42:47.561Z,17.62
2019-03-09T04:43:44.261Z,17.62
2019-03-09T04:44:40.961Z,17.62
2019-03-09T04:45:37.673Z,17.62
2019-03-09T04:46:34.377Z,17.56
2019-03-09T04:47:31.087Z,17.56
2019-03-09T04:48:27.780Z,17.56
2019-03-09T04:49:24.490Z,17.62
2019-03-09T04:50:21.197Z,17.56
2019-03-09T04:51:17.921Z,17.62
2019-03-09T04:52:14.624Z,17.62
2019-03-09T04:53:11.325Z,17.56
2019-03-09T04:54:08.029Z,17.56
2019-03-09T04:55:04.730Z,17.56
2019-03-09T04:56:01.430Z,17.56
2019-03-09T04:56:58.149Z,17.56
2019-03-09T04:57:54.861Z,17.56
2019-03-09T04:58:51.572Z,17.62
2019-03-09T04:59:48.280Z,17.56
2019-03-09T05:00:44.972Z,17.56
2019-03-09T05:01:41.702Z,17.62
2019-03-09T05:02:38.399Z,17.56
2019-03-09T05:03:35.092Z,17.56
2019-03-09T05:04:31.789Z,17.56
2019-03-09T05:05:28.489Z,17.56
2019-03-09T05:06:25.189Z,17.56
2019-03-09T05:07:21.914Z,17.56
2019-03-09T05:08:18.624Z,17.56
2019-03-09T05:09:15.341Z,17.56
2019-03-09T05:10:12.037Z,17.56
2019-03-09T05:11:08.748Z,17.56
2019-03-09T05:12:05.472Z,17.56
2019-03-09T05:13:02.165Z,17.56
2019-03-09T05:13:58.873Z,17.56
2019-03-09T05:14:55.577Z,17.56
2019-03-09T05:15:52.271Z,17.56
2019-03-09T05:16:48.989Z,17.56
2019-03-09T05:17:45.686Z,17.56
2019-03-09T05:18:42.382Z,17.56
2019-03-09T05:19:39.080Z,17.56
2019-03-09T05:20:35.788Z,17.56
2019-03-09T05:21:32.484Z,17.56
2019-03-09T05:22:29.212Z,17.56
2019-03-09T05:23:25.912Z,17.56
2019-03-09T05:24:22.619Z,17.56
2019-03-09T05:25:19.327Z,17.56
2019-03-09T05:26:16.017Z,17.56
2019-03-09T05:27:12.712Z,17.56
2019-03-09T05:28:09.433Z,17.56
2019-03-09T05:29:06.141Z,17.56
2019-03-09T05:30:02.840Z,17.56
2019-03-09T05:30:59.549Z,17.56
2019-03-09T05:31:56.253Z,17.56
2019-03-09T05:32:52.953Z,17.56
2019-03-09T05:33:49.648Z,17.56
2019-03-09T05:34:46.353Z,17.56
2019-03-09T05:35:43.052Z,17.56
2019-03-09T05:36:39.753Z,17.56
2019-03-09T05:37:43.163Z,17.56
2019-03-09T05:38:34.989Z,17.56
2019-03-09T05:39:31.680Z,17.56
2019-03-09T05:40:28.384Z,17.56
2019-03-09T05:41:25.096Z,17.56
2019-03-09T05:42:21.788Z,17.56
2019-03-09T05:43:18.504Z,17.56
2019-03-09T05:44:15.113Z,17.56
2019-03-09T05:45:11.808Z,17.56
2019-03-09T05:46:08.420Z,17.56
2019-03-09T05:47:05.133Z,17.56
2019-03-09T05:48:01.825Z,17.56
2019-03-09T05:48:58.545Z,17.56
2019-03-09T05:49:55.249Z,17.56
2019-03-09T05:50:51.951Z,17.56
2019-03-09T05:51:48.653Z,17.56
2019-03-09T05:52:45.361Z,17.56
2019-03-09T05:53:42.071Z,17.56
2019-03-09T05:54:38.805Z,17.56
2019-03-09T05:55:35.492Z,17.56
2019-03-09T05:56:32.197Z,17.56
2019-03-09T05:57:28.893Z,17.56
2019-03-09T05:58:25.604Z,17.56
2019-03-09T05:59:22.338Z,17.56
2019-03-09T06:00:19.037Z,17.56
2019-03-09T06:01:15.736Z,17.56
2019-03-09T06:02:12.446Z,17.56
2019-03-09T06:03:09.149Z,17.56
2019-03-09T06:04:05.849Z,17.56
2019-03-09T06:05:02.577Z,17.56
2019-03-09T06:05:59.305Z,17.56
2019-03-09T06:06:56.008Z,17.56
2019-03-09T06:07:52.708Z,17.56
2019-03-09T06:08:49.414Z,17.56
2019-03-09T06:09:46.131Z,17.56
2019-03-09T06:10:42.845Z,17.56
2019-03-09T06:11:39.545Z,17.56
2019-03-09T06:12:36.250Z,17.56
2019-03-09T06:13:32.953Z,17.56
2019-03-09T06:14:29.640Z,17.56
2019-03-09T06:15:26.345Z,17.56
2019-03-09T06:16:23.075Z,17.56
2019-03-09T06:17:19.768Z,17.56
2019-03-09T06:18:16.473Z,17.50
2019-03-09T06:19:13.162Z,17.56
2019-03-09T06:20:09.864Z,17.50
2019-03-09T06:21:06.610Z,17.56
2019-03-09T06:22:03.309Z,17.56
2019-03-09T06:23:00.009Z,17.56
2019-03-09T06:23:56.726Z,17.50
2019-03-09T06:24:53.433Z,17.50
2019-03-09T06:25:50.147Z,17.50
2019-03-09T06:26:46.877Z,17.50
2019-03-09T06:27:43.576Z,17.50
2019-03-09T06:28:40.272Z,17.50
2019-03-09T06:29:36.982Z,17.50
2019-03-09T06:30:33.681Z,17.50
2019-03-09T06:31:30.381Z,17.50
2019-03-09T06:32:27.113Z,17.50
2019-03-09T06:33:23.814Z,17.50
2019-03-09T06:34:20.509Z,17.50
2019-03-09T06:35:17.208Z,17.50
2019-03-09T06:36:13.917Z,17.50
2019-03-09T06:37:10.621Z,17.50
2019-03-09T06:38:07.349Z,17.50
2019-03-09T06:39:04.564Z,17.50
2019-03-09T06:40:01.272Z,17.50
2019-03-09T06:41:02.837Z,17.50
2019-03-09T06:41:56.480Z,17.50
2019-03-09T06:42:53.177Z,17.50
2019-03-09T06:43:49.909Z,17.50
2019-03-09T06:44:46.609Z,17.50
2019-03-09T06:45:43.309Z,17.50
2019-03-09T06:46:40.016Z,17.50
2019-03-09T06:47:36.713Z,17.50
2019-03-09T06:48:33.426Z,17.56
2019-03-09T06:49:30.128Z,17.56
2019-03-09T06:50:26.835Z,17.62
2019-03-09T06:51:23.532Z,17.75
2019-03-09T06:52:20.237Z,17.81
2019-03-09T06:53:16.938Z,18.00
2019-03-09T06:54:13.680Z,18.12
2019-03-09T06:55:10.385Z,18.25
2019-03-09T06:56:07.085Z,18.37
2019-03-09T06:57:13.277Z,18.50
2019-03-09T06:58:02.308Z,18.69
2019-03-09T06:58:59.016Z,18.81
2019-03-09T06:59:55.740Z,18.94
2019-03-09T07:00:52.440Z,19.06
2019-03-09T07:01:49.145Z,19.12
2019-03-09T07:02:45.852Z,19.25
2019-03-09T07:03:42.556Z,19.37
2019-03-09T07:04:39.257Z,19.44
2019-03-09T07:05:35.992Z,19.50
2019-03-09T07:06:32.693Z,19.56
2019-03-09T07:07:29.389Z,19.62
2019-03-09T07:08:26.093Z,19.69
2019-03-09T07:09:22.798Z,19.75
2019-03-09T07:10:19.504Z,19.87
2019-03-09T07:11:16.245Z,19.94
2019-03-09T07:12:12.925Z,20.00
2019-03-09T07:13:09.624Z,20.12
2019-03-09T07:14:06.314Z,20.12
2019-03-09T07:15:02.922Z,20.19
2019-03-09T07:15:59.621Z,20.25
2019-03-09T07:16:56.325Z,20.37
2019-03-09T07:17:53.029Z,20.44
2019-03-09T07:18:49.724Z,20.50
2019-03-09T07:19:46.420Z,20.44
2019-03-09T07:20:43.121Z,20.37
2019-03-09T07:21:39.849Z,20.37
2019-03-09T07:22:36.537Z,20.37
2019-03-09T07:23:33.237Z,20.44
2019-03-09T07:24:29.945Z,20.44
2019-03-09T07:25:26.649Z,20.50
2019-03-09T07:26:23.385Z,20.62
2019-03-09T07:27:20.088Z,20.62
2019-03-09T07:28:16.792Z,20.56
2019-03-09T07:29:13.497Z,20.62
2019-03-09T07:30:10.193Z,20.69
2019-03-09T07:31:06.897Z,20.75
2019-03-09T07:32:03.601Z,20.75
2019-03-09T07:33:00.304Z,20.75
2019-03-09T07:33:57.008Z,20.88
2019-03-09T07:34:53.708Z,20.88
2019-03-09T07:35:50.409Z,20.88
2019-03-09T07:36:47.146Z,20.94
2019-03-09T07:37:43.845Z,21.00
2019-03-09T07:38:40.556Z,21.12
2019-03-09T07:39:37.256Z,21.12
2019-03-09T07:40:33.953Z,21.12
2019-03-09T07:41:30.655Z,21.12
2019-03-09T07:42:27.380Z,21.06
2019-03-09T07:43:24.089Z,21.06
2019-03-09T07:44:20.782Z,21.00
2019-03-09T07:45:17.480Z,21.00
2019-03-09T07:46:14.194Z,21.06
2019-03-09T07:47:10.915Z,21.06
2019-03-09T07:48:07.611Z,21.06
2019-03-09T07:49:04.313Z,21.06
2019-03-09T07:50:01.016Z,21.12
2019-03-09T07:50:57.726Z,21.19
2019-03-09T07:51:54.432Z,21.25
2019-03-09T07:52:51.146Z,21.25
2019-03-09T07:53:47.832Z,21.19
2019-03-09T07:54:44.534Z,21.19
2019-03-09T07:55:41.244Z,21.19
2019-03-09T07:56:37.937Z,21.19
2019-03-09T07:57:34.642Z,21.19
2019-03-09T07:58:31.373Z,21.19
2019-03-09T07:59:28.077Z,21.19
2019-03-09T08:00:24.792Z,21.19
2019-03-09T08:01:21.489Z,21.25
2019-03-09T08:02:18.188Z,21.25
2019-03-09T08:03:14.927Z,21.25
2019-03-09T08:04:11.620Z,21.31
2019-03-09T08:05:08.317Z,21.37
2019-03-09T08:06:05.041Z,21.37
2019-03-09T08:07:01.756Z,21.37
2019-03-09T08:07:58.360Z,21.31
2019-03-09T08:08:55.090Z,21.25
2019-03-09T08:09:51.784Z,21.31
2019-03-09T08:10:48.490Z,21.31
2019-03-09T08:11:45.196Z,21.25
2019-03-09T08:12:41.901Z,21.25
2019-03-09T08:13:38.610Z,21.31
2019-03-09T08:14:35.311Z,21.37
2019-03-09T08:15:32.005Z,21.37
2019-03-09T08:16:35.529Z,21.44
2019-03-09T08:17:27.118Z,21.44
2019-03-09T08:18:23.817Z,21.44
2019-03-09T08:19:20.548Z,21.44
2019-03-09T08:20:17.253Z,21.44
2019-03-09T08:21:13.953Z,21.44
2019-03-09T08:22:10.652Z,21.50
2019-03-09T08:23:07.357Z,21.50
2019-03-09T08:24:04.079Z,21.44
2019-03-09T08:25:00.827Z,21.37
2019-03-09T08:25:57.514Z,21.37
2019-03-09T08:26:54.224Z,21.44
2019-03-09T08:27:50.909Z,21.44
2019-03-09T08:28:47.605Z,21.44
2019-03-09T08:29:44.333Z,21.37
2019-03-09T08:30:41.062Z,21.31
2019-03-09T08:31:37.745Z,21.31
2019-03-09T08:32:34.453Z,21.25
2019-03-09T08:33:31.174Z,21.37
2019-03-09T08:34:27.857Z,21.37
2019-03-09T08:35:24.562Z,21.37
2019-03-09T08:36:21.263Z,21.37
2019-03-09T08:37:17.962Z,21.44
2019-03-09T08:38:14.658Z,21.50
2019-03-09T08:39:11.363Z,21.56
2019-03-09T08:40:08.085Z,21.56
2019-03-09T08:41:04.778Z,21.50
2019-03-09T08:42:01.492Z,21.44
2019-03-09T08:42:58.174Z,21.50
2019-03-09T08:43:54.869Z,21.50
2019-03-09T08:44:51.574Z,21.44
2019-03-09T08:45:48.285Z,21.37
2019-03-09T08:46:45.009Z,21.37
2019-03-09T08:47:48.504Z,21.37
2019-03-09T08:48:40.207Z,21.31
2019-03-09T08:49:36.916Z,21.37
2019-03-09T08:50:33.619Z,21.37
2019-03-09T08:51:30.334Z,21.44
2019-03-09T08:52:27.001Z,21.44
2019-03-09T08:53:23.705Z,21.50
2019-03-09T08:54:20.397Z,21.56
2019-03-09T08:55:18.014Z,21.62
2019-03-09T08:56:15.037Z,21.62
2019-03-09T08:57:11.815Z,21.62
2019-03-09T08:58:08.503Z,21.56
2019-03-09T08:59:05.166Z,21.56
2019-03-09T09:00:01.947Z,21.56
2019-03-09T09:00:58.682Z,21.50
2019-03-09T09:01:55.384Z,21.56
2019-03-09T09:02:52.092Z,21.62
2019-03-09T09:03:48.789Z,21.62
2019-03-09T09:04:45.489Z,21.62
2019-03-09T09:05:42.188Z,21.62
2019-03-09T09:06:38.922Z,21.62
2019-03-09T09:07:35.621Z,21.62
2019-03-09T09:08:32.321Z,21.62
2019-03-09T09:09:29.026Z,21.56
2019-03-09T09:10:25.730Z,21.50
2019-03-09T09:11:22.464Z,21.44
2019-03-09T09:12:19.184Z,21.37
2019-03-09T09:13:15.873Z,21.44
2019-03-09T09:14:12.577Z,21.44
2019-03-09T09:15:09.276Z,21.37
2019-03-09T09:16:05.981Z,21.37
2019-03-09T09:17:02.709Z,21.37
2019-03-09T09:17:59.413Z,21.44
2019-03-09T09:18:56.109Z,21.50
2019-03-09T09:19:52.817Z,21.56
2019-03-09T09:20:49.528Z,21.56
2019-03-09T09:21:46.261Z,21.56
2019-03-09T09:22:42.981Z,21.44
2019-03-09T09:23:39.679Z,21.44
2019-03-09T09:24:36.376Z,21.44
2019-03-09T09:25:33.068Z,21.50
2019-03-09T09:26:29.786Z,21.50
2019-03-09T09:27:26.509Z,21.50
2019-03-09T09:28:23.229Z,21.44
2019-03-09T09:29:19.934Z,21.44
2019-03-09T09:30:16.633Z,21.44
2019-03-09T09:31:13.333Z,21.44
2019-03-09T09:32:10.061Z,21.44
2019-03-09T09:33:06.769Z,21.44
2019-03-09T09:34:03.473Z,21.44
2019-03-09T09:35:00.251Z,21.37
2019-03-09T09:35:56.890Z,21.37
2019-03-09T09:36:53.585Z,21.37
2019-03-09T09:37:50.309Z,21.37
2019-03-09T09:38:47.013Z,21.37
2019-03-09T09:39:43.726Z,21.44
2019-03-09T09:40:40.423Z,21.50
2019-03-09T09:41:37.130Z,21.50
2019-03-09T09:42:33.833Z,21.50
2019-03-09T09:43:30.567Z,21.56
2019-03-09T09:44:27.260Z,21.56
2019-03-09T09:45:23.974Z,21.56
2019-03-09T09:46:20.674Z,21.56
2019-03-09T09:47:17.385Z,21.50
2019-03-09T09:48:14.097Z,21.50
2019-03-09T09:49:10.801Z,21.50
2019-03-09T09:50:07.509Z,21.50
2019-03-09T09:51:04.197Z,21.56
2019-03-09T09:52:00.902Z,21.56
2019-03-09T09:52:57.609Z,21.56
2019-03-09T09:53:54.309Z,21.50
2019-03-09T09:54:51.001Z,21.56
2019-03-09T09:55:47.763Z,21.56
2019-03-09T09:56:44.479Z,21.50
2019-03-09T09:57:41.180Z,21.50
2019-03-09T09:58:37.905Z,21.50
2019-03-09T09:59:34.613Z,21.50
2019-03-09T10:00:31.304Z,21.50
2019-03-09T10:01:28.010Z,21.50
2019-03-09T10:02:24.713Z,21.50
2019-03-09T10:03:21.415Z,21.50
2019-03-09T10:04:18.152Z,21.50
2019-03-09T10:05:14.856Z,21.50
2019-03-09T10:06:11.572Z,21.50
2019-03-09T10:07:08.264Z,21.44
2019-03-09T10:08:04.955Z,21.44
2019-03-09T10:09:01.670Z,21.37
2019-03-09T10:09:58.378Z,21.44
2019-03-09T10:10:55.077Z,21.50
2019-03-09T10:11:51.781Z,21.50
2019-03-09T10:12:48.485Z,21.44
2019-03-09T10:13:45.187Z,21.37
2019-03-09T10:14:41.982Z,21.44
2019-03-09T10:15:39.475Z,21.44
2019-03-09T10:16:36.355Z,21.44
2019-03-09T10:17:33.058Z,21.44
2019-03-09T10:18:29.765Z,21.37
2019-03-09T10:19:26.495Z,21.37
2019-03-09T10:20:23.203Z,21.31
2019-03-09T10:21:19.893Z,21.31
2019-03-09T10:22:16.597Z,21.25
2019-03-09T10:23:13.298Z,21.19
2019-03-09T10:24:10.004Z,21.19
2019-03-09T10:25:06.725Z,21.19
2019-03-09T10:26:03.467Z,21.12
2019-03-09T10:27:00.175Z,21.12
2019-03-09T10:27:56.883Z,21.06
2019-03-09T10:28:53.585Z,21.06
2019-03-09T10:29:50.305Z,21.06
2019-03-09T10:30:47.011Z,21.12
2019-03-09T10:31:43.720Z,21.12
2019-03-09T10:32:40.422Z,21.06
2019-03-09T10:33:37.113Z,21.00
2019-03-09T10:34:33.813Z,20.94
2019-03-09T10:35:30.540Z,20.88
2019-03-09T10:36:27.241Z,20.88
2019-03-09T10:37:23.933Z,20.88
2019-03-09T10:38:20.651Z,20.81
2019-03-09T10:39:17.351Z,20.81
2019-03-09T10:40:14.056Z,20.81
2019-03-09T10:41:10.780Z,20.81
2019-03-09T10:42:07.468Z,20.81
2019-03-09T10:43:04.185Z,20.75
2019-03-09T10:44:04.013Z,20.75
2019-03-09T10:45:00.726Z,20.75
2019-03-09T10:45:57.463Z,20.69
2019-03-09T10:46:54.165Z,20.69
2019-03-09T10:47:50.868Z,20.69
2019-03-09T10:48:47.580Z,20.62
2019-03-09T10:49:44.278Z,20.56
2019-03-09T10:50:40.980Z,20.56
2019-03-09T10:51:37.689Z,20.56
2019-03-09T10:52:34.396Z,20.56
2019-03-09T10:53:31.097Z,20.50
2019-03-09T10:54:35.760Z,20.50
2019-03-09T10:55:26.349Z,20.44
2019-03-09T10:56:23.076Z,20.44
2019-03-09T10:57:19.776Z,20.44
2019-03-09T10:58:16.473Z,20.37
2019-03-09T10:59:13.201Z,20.37
2019-03-09T11:00:09.895Z,20.37
2019-03-09T11:01:06.603Z,20.31
2019-03-09T11:02:03.312Z,20.31
2019-03-09T11:03:00.013Z,20.31
2019-03-09T11:03:56.718Z,20.31
2019-03-09T11:04:53.412Z,20.25
2019-03-09T11:05:50.122Z,20.25
2019-03-09T11:06:46.829Z,20.25
2019-03-09T11:07:43.537Z,20.25
2019-03-09T11:08:40.237Z,20.19
2019-03-09T11:09:36.937Z,20.19
2019-03-09T11:10:33.644Z,20.19
2019-03-09T11:11:30.349Z,20.12
2019-03-09T11:12:27.134Z,20.12
2019-03-09T11:13:23.783Z,20.06
2019-03-09T11:14:20.493Z,20.06
2019-03-09T11:15:17.192Z,20.06
2019-03-09T11:16:13.894Z,20.06
2019-03-09T11:17:10.597Z,20.06
2019-03-09T11:18:07.328Z,20.06
2019-03-09T11:19:04.020Z,20.00
2019-03-09T11:20:00.732Z,20.00
2019-03-09T11:20:57.434Z,19.94
2019-03-09T11:21:54.139Z,19.94
2019-03-09T11:22:50.867Z,19.94
2019-03-09T11:23:47.608Z,19.94
2019-03-09T11:24:44.365Z,19.87
2019-03-09T11:25:41.057Z,19.87
2019-03-09T11:26:37.759Z,19.81
2019-03-09T11:27:34.471Z,19.75
2019-03-09T11:28:31.185Z,19.75
2019-03-09T11:29:28.340Z,19.75
2019-03-09T11:30:25.099Z,19.75
2019-03-09T11:31:21.798Z,19.75
2019-03-09T11:32:18.497Z,19.75
2019-03-09T11:33:15.225Z,19.69
2019-03-09T11:34:11.953Z,19.69
2019-03-09T11:35:08.644Z,19.62
2019-03-09T11:36:05.341Z,19.62
2019-03-09T11:37:02.053Z,19.62
2019-03-09T11:37:58.753Z,19.62
2019-03-09T11:38:55.490Z,19.62
2019-03-09T11:39:52.200Z,19.62
2019-03-09T11:40:56.969Z,19.56
2019-03-09T11:41:47.414Z,19.56
2019-03-09T11:42:44.118Z,19.56
2019-03-09T11:43:40.823Z,19.56
2019-03-09T11:44:37.552Z,19.56
2019-03-09T11:45:34.253Z,19.50
2019-03-09T11:46:30.945Z,19.50
2019-03-09T11:47:27.648Z,19.50
2019-03-09T11:48:24.355Z,19.44
2019-03-09T11:49:21.066Z,19.44
2019-03-09T11:50:17.781Z,19.44
2019-03-09T11:51:14.478Z,19.44
2019-03-09T11:52:19.645Z,19.44
2019-03-09T11:53:09.669Z,19.44
2019-03-09T11:54:06.381Z,19.44
2019-03-09T11:55:03.116Z,19.37
2019-03-09T11:55:59.833Z,19.37
2019-03-09T11:56:56.523Z,19.37
2019-03-09T11:57:53.234Z,19.37
2019-03-09T11:58:49.941Z,19.31
2019-03-09T11:59:46.656Z,19.31
2019-03-09T12:00:43.889Z,19.31
2019-03-09T12:01:40.598Z,19.31
2019-03-09T12:02:39.193Z,19.31
2019-03-09T12:03:35.804Z,19.31
2019-03-09T12:04:32.509Z,19.25
2019-03-09T12:05:29.238Z,19.25
2019-03-09T12:06:25.945Z,19.25
2019-03-09T12:07:22.650Z,19.25
2019-03-09T12:08:19.355Z,19.25
2019-03-09T12:09:16.061Z,19.25
2019-03-09T12:10:12.788Z,19.25
2019-03-09T12:11:09.489Z,19.19
2019-03-09T12:12:06.196Z,19.19
2019-03-09T12:13:02.888Z,19.19